createdAt,value
2023-02-11T00:00:46.300Z,100627.84
2023-02-11T00:03:50.490Z,100625.88
2023-02-11T00:06:53.207Z,100622.22
2023-02-11T00:09:55.918Z,100616.47
2023-02-11T00:12:58.906Z,100616.53
2023-02-11T00:16:01.609Z,100612.13
2023-02-11T00:19:06.561Z,100611.31
2023-02-11T00:22:09.342Z,100619.44
2023-02-11T00:25:12.011Z,100612.78
2023-02-11T00:28:14.821Z,100613.97
2023-02-11T00:31:19.135Z,100611.44
2023-02-11T00:34:23.224Z,100609.31
2023-02-11T00:37:25.835Z,100604.63
2023-02-11T00:40:28.837Z,100600.00
2023-02-11T00:43:31.556Z,100590.88
2023-02-11T00:46:34.320Z,100601.09
2023-02-11T00:49:40.329Z,100591.94
2023-02-11T00:52:43.019Z,100597.28
2023-02-11T00:55:45.732Z,100602.28
2023-02-11T00:58:48.621Z,100609.09
2023-02-11T01:01:51.375Z,100606.09
2023-02-11T01:04:55.424Z,100597.91
2023-02-11T01:07:58.231Z,100592.41
2023-02-11T01:11:02.807Z,100588.94
2023-02-11T01:14:05.536Z,100592.63
2023-02-11T01:17:08.348Z,100574.03
2023-02-11T01:20:17.284Z,100571.09
2023-02-11T01:23:20.040Z,100561.81
2023-02-11T01:26:22.737Z,100552.09
2023-02-11T01:29:26.259Z,100551.63
2023-02-11T01:32:29.281Z,100559.78
2023-02-11T01:35:33.570Z,100554.63
2023-02-11T01:38:36.531Z,100548.44
2023-02-11T01:41:39.545Z,100558.91
2023-02-11T01:44:42.343Z,100559.69
2023-02-11T01:47:45.331Z,100557.66
2023-02-11T01:50:52.006Z,100548.91
2023-02-11T01:54:12.984Z,100549.19
2023-02-11T01:57:25.283Z,100546.88
2023-02-11T02:00:32.514Z,100551.41
2023-02-11T02:03:37.829Z,100550.19
2023-02-11T02:06:47.711Z,100547.66
2023-02-11T02:09:56.598Z,100546.00
2023-02-11T02:12:59.213Z,100534.69
2023-02-11T02:16:03.462Z,100529.38
2023-02-11T02:19:46.653Z,100531.50
2023-02-11T02:23:22.016Z,100540.13
2023-02-11T02:26:44.343Z,100533.47
2023-02-11T02:30:07.917Z,100523.59
2023-02-11T02:33:23.123Z,100517.66
2023-02-11T02:36:39.197Z,100511.88
2023-02-11T02:39:41.950Z,100526.28
2023-02-11T02:42:45.372Z,100519.88
2023-02-11T02:45:48.405Z,100515.81
2023-02-11T02:48:53.643Z,100507.97
2023-02-11T02:52:05.624Z,100504.88
2023-02-11T02:55:17.283Z,100488.00
2023-02-11T02:58:38.958Z,100483.38
2023-02-11T03:01:47.950Z,100478.44
2023-02-11T03:04:56.897Z,100483.38
2023-02-11T03:08:04.015Z,100497.16
2023-02-11T03:11:07.435Z,100500.66
2023-02-11T03:14:16.112Z,100487.91
2023-02-11T03:17:19.681Z,100482.09
2023-02-11T03:20:24.249Z,100476.50
2023-02-11T03:23:30.871Z,100473.84
2023-02-11T03:26:38.429Z,100479.19
2023-02-11T03:29:45.211Z,100474.03
2023-02-11T03:32:51.375Z,100470.50
2023-02-11T03:35:57.455Z,100463.09
2023-02-11T03:39:02.261Z,100476.31
2023-02-11T03:42:05.968Z,100477.13
2023-02-11T03:45:11.534Z,100475.03
2023-02-11T03:48:17.158Z,100476.66
2023-02-11T03:51:22.417Z,100481.69
2023-02-11T03:54:28.663Z,100487.94
2023-02-11T03:57:34.300Z,100481.19
2023-02-11T04:00:39.617Z,100467.84
2023-02-11T04:03:42.875Z,100472.06
2023-02-11T04:06:47.012Z,100475.97
2023-02-11T04:09:49.677Z,100494.75
2023-02-11T04:12:52.860Z,100494.38
2023-02-11T04:15:55.624Z,100491.69
2023-02-11T04:18:58.440Z,100506.41
2023-02-11T04:22:02.804Z,100503.50
2023-02-11T04:25:06.096Z,100513.44
2023-02-11T04:28:08.923Z,100508.91
2023-02-11T04:31:12.122Z,100509.31
2023-02-11T04:34:15.019Z,100499.81
2023-02-11T04:37:19.091Z,100499.81
2023-02-11T04:40:22.665Z,100500.41
2023-02-11T04:43:25.353Z,100497.72
2023-02-11T04:46:28.052Z,100493.53
2023-02-11T04:49:31.078Z,100496.84
2023-02-11T04:52:35.113Z,100498.72
2023-02-11T04:55:37.747Z,100489.97
2023-02-11T04:58:40.590Z,100488.34
2023-02-11T05:01:44.039Z,100482.13
2023-02-11T05:04:46.706Z,100492.81
2023-02-11T05:07:50.984Z,100487.66
2023-02-11T05:10:53.773Z,100487.44
2023-02-11T05:13:56.446Z,100474.63
2023-02-11T05:16:59.199Z,100465.31
2023-02-11T05:20:02.451Z,100451.63
2023-02-11T05:23:06.635Z,100441.00
2023-02-11T05:26:10.121Z,100425.47
2023-02-11T05:29:12.824Z,100425.69
2023-02-11T05:32:15.579Z,100423.84
2023-02-11T05:35:18.829Z,100432.78
2023-02-11T05:38:22.926Z,100433.63
2023-02-11T05:41:25.704Z,100429.31
2023-02-11T05:44:29.205Z,100422.28
2023-02-11T05:47:31.989Z,100439.25
2023-02-11T05:50:34.733Z,100440.16
2023-02-11T05:53:38.809Z,100441.78
2023-02-11T05:56:44.429Z,100435.53
2023-02-11T05:59:48.167Z,100430.78
2023-02-11T06:02:51.187Z,100429.28
2023-02-11T06:05:54.032Z,100435.44
2023-02-11T06:12:01.678Z,100447.06
2023-02-11T06:15:05.600Z,100454.28
2023-02-11T06:18:08.704Z,100460.25
2023-02-11T06:21:12.158Z,100464.19
2023-02-11T06:24:21.657Z,100462.31
2023-02-11T06:27:31.445Z,100451.53
2023-02-11T06:30:34.241Z,100456.47
2023-02-11T06:33:37.186Z,100444.63
2023-02-11T06:36:41.108Z,100443.53
2023-02-11T06:39:46.486Z,100445.78
2023-02-11T06:42:50.659Z,100452.84
2023-02-11T06:45:54.449Z,100448.75
2023-02-11T06:48:57.038Z,100455.53
2023-02-11T06:51:59.744Z,100470.00
2023-02-11T06:55:02.739Z,100465.41
2023-02-11T06:58:06.745Z,100463.94
2023-02-11T07:01:11.973Z,100470.38
2023-02-11T07:04:21.432Z,100466.22
2023-02-11T07:07:24.200Z,100463.03
2023-02-11T07:10:26.924Z,100471.84
2023-02-11T07:13:31.025Z,100463.53
2023-02-11T07:16:34.096Z,100466.47
2023-02-11T07:19:37.316Z,100471.94
2023-02-11T07:22:40.112Z,100464.44
2023-02-11T07:25:42.731Z,100471.63
2023-02-11T07:28:47.118Z,100453.59
2023-02-11T07:31:50.591Z,100457.88
2023-02-11T07:34:53.675Z,100464.25
2023-02-11T07:37:56.616Z,100470.78
2023-02-11T07:41:01.367Z,100481.91
2023-02-11T07:44:05.852Z,100486.34
2023-02-11T07:47:08.675Z,100478.16
2023-02-11T07:50:11.527Z,100476.31
2023-02-11T07:53:14.391Z,100468.72
2023-02-11T07:56:18.076Z,100455.97
2023-02-11T07:59:22.393Z,100452.16
2023-02-11T08:02:26.939Z,100456.13
2023-02-11T08:05:30.523Z,100451.69
2023-02-11T08:08:33.339Z,100454.28
2023-02-11T08:11:36.965Z,100434.78
2023-02-11T08:14:41.373Z,100436.69
2023-02-11T08:17:44.165Z,100449.75
2023-02-11T08:20:46.934Z,100452.09
2023-02-11T08:23:50.493Z,100459.63
2023-02-11T08:26:53.200Z,100460.44
2023-02-11T08:29:59.671Z,100468.00
2023-02-11T08:33:02.762Z,100471.16
2023-02-11T08:36:10.030Z,100476.44
2023-02-11T08:39:19.672Z,100472.34
2023-02-11T08:42:23.051Z,100466.66
2023-02-11T08:45:27.233Z,100468.63
2023-02-11T08:48:30.088Z,100459.91
2023-02-11T08:51:34.473Z,100464.06
2023-02-11T08:54:38.347Z,100458.13
2023-02-11T08:57:41.094Z,100454.34
2023-02-11T09:00:45.397Z,100436.69
2023-02-11T09:03:48.555Z,100445.16
2023-02-11T09:06:51.413Z,100454.63
2023-02-11T09:09:54.491Z,100460.06
2023-02-11T09:12:57.380Z,100465.91
2023-02-11T09:16:02.205Z,100470.50
2023-02-11T09:19:06.346Z,100454.00
2023-02-11T09:22:09.317Z,100449.06
2023-02-11T09:25:12.262Z,100451.00
2023-02-11T09:28:15.001Z,100456.91
2023-02-11T09:31:21.665Z,100448.06
2023-02-11T09:34:24.414Z,100442.28
2023-02-11T09:37:27.090Z,100427.50
2023-02-11T09:40:29.872Z,100428.34
2023-02-11T09:43:34.692Z,100432.19
2023-02-11T09:46:42.463Z,100433.91
2023-02-11T09:49:48.493Z,100430.91
2023-02-11T09:52:57.084Z,100443.72
2023-02-11T09:56:02.425Z,100443.47
2023-02-11T09:59:05.802Z,100453.31
2023-02-11T10:02:14.503Z,100446.44
2023-02-11T10:05:27.143Z,100450.84
2023-02-11T10:08:37.797Z,100457.38
2023-02-11T10:11:50.440Z,100460.06
2023-02-11T10:15:15.014Z,100464.25
2023-02-11T10:18:48.322Z,100459.94
2023-02-11T10:21:59.932Z,100453.19
2023-02-11T10:25:23.521Z,100457.00
2023-02-11T10:28:45.223Z,100456.84
2023-02-11T10:31:48.878Z,100457.44
2023-02-11T10:34:53.677Z,100462.00
2023-02-11T10:38:06.451Z,100455.66
2023-02-11T10:41:39.343Z,100464.00
2023-02-11T10:44:44.750Z,100462.75
2023-02-11T10:47:47.405Z,100452.00
2023-02-11T10:50:51.892Z,100448.81
2023-02-11T10:54:14.342Z,100442.66
2023-02-11T10:57:22.698Z,100448.72
2023-02-11T11:00:36.794Z,100429.31
2023-02-11T11:03:40.216Z,100416.78
2023-02-11T11:06:44.221Z,100415.97
2023-02-11T11:09:51.499Z,100414.16
2023-02-11T11:12:54.157Z,100409.38
2023-02-11T11:16:16.393Z,100401.22
2023-02-11T11:19:23.128Z,100404.44
2023-02-11T11:22:27.471Z,100415.41
2023-02-11T11:25:31.143Z,100414.59
2023-02-11T11:28:36.622Z,100405.19
2023-02-11T11:31:48.999Z,100413.16
2023-02-11T11:34:54.096Z,100421.13
2023-02-11T11:38:02.033Z,100404.28
2023-02-11T11:41:20.723Z,100402.75
2023-02-11T11:44:30.088Z,100400.59
2023-02-11T11:47:41.854Z,100394.66
2023-02-11T11:50:47.205Z,100397.41
2023-02-11T11:53:56.138Z,100394.75
2023-02-11T11:57:01.583Z,100392.56
2023-02-11T12:00:04.700Z,100396.75
2023-02-11T12:03:45.064Z,100381.59
2023-02-11T12:07:01.599Z,100386.88
2023-02-11T12:10:29.761Z,100390.75
2023-02-11T12:13:44.337Z,100385.41
2023-02-11T12:16:55.233Z,100386.72
2023-02-11T12:20:14.251Z,100392.94
2023-02-11T12:23:30.065Z,100393.03
2023-02-11T12:26:39.164Z,100395.50
2023-02-11T12:29:53.426Z,100392.53
2023-02-11T12:33:04.858Z,100396.31
2023-02-11T12:36:12.079Z,100398.53
2023-02-11T12:39:25.908Z,100397.13
2023-02-11T12:42:53.233Z,100390.13
2023-02-11T12:46:35.918Z,100391.38
2023-02-11T12:50:06.182Z,100386.63
2023-02-11T12:53:24.250Z,100386.59
2023-02-11T12:56:35.736Z,100385.97
2023-02-11T12:59:49.955Z,100388.06
2023-02-11T13:02:56.152Z,100377.50
2023-02-11T13:06:01.534Z,100371.03
2023-02-11T13:09:06.000Z,100360.47
2023-02-11T13:12:24.291Z,100353.91
2023-02-11T13:15:30.244Z,100353.78
2023-02-11T13:18:41.469Z,100355.56
2023-02-11T13:21:56.176Z,100345.91
2023-02-11T13:25:03.690Z,100338.53
2023-02-11T13:28:18.641Z,100346.28
2023-02-11T13:31:26.763Z,100349.75
2023-02-11T13:34:57.238Z,100353.06
2023-02-11T13:38:00.694Z,100343.72
2023-02-11T13:41:06.268Z,100342.53
2023-02-11T13:44:25.096Z,100355.66
2023-02-11T13:47:32.124Z,100345.97
2023-02-11T13:50:39.491Z,100345.81
2023-02-11T13:53:47.957Z,100357.88
2023-02-11T13:57:32.459Z,100346.75
2023-02-11T14:00:46.272Z,100343.28
2023-02-11T14:04:21.243Z,100340.63
2023-02-11T14:07:47.196Z,100340.63
2023-02-11T14:10:52.150Z,100333.50
2023-02-11T14:14:17.299Z,100333.88
2023-02-11T14:17:27.796Z,100333.09
2023-02-11T14:20:54.032Z,100327.78
2023-02-11T14:24:37.181Z,100328.34
2023-02-11T14:27:43.648Z,100334.31
2023-02-11T14:30:52.326Z,100335.16
2023-02-11T14:34:06.514Z,100327.88
2023-02-11T14:37:18.913Z,100325.25
2023-02-11T14:40:32.042Z,100329.19
2023-02-11T14:43:37.512Z,100330.31
2023-02-11T14:46:45.399Z,100331.22
2023-02-11T14:49:49.047Z,100334.06
2023-02-11T14:52:51.640Z,100339.44
2023-02-11T14:55:56.237Z,100335.63
2023-02-11T14:58:59.280Z,100335.81
2023-02-11T15:02:02.195Z,100344.00
2023-02-11T15:05:21.065Z,100339.16
2023-02-11T15:08:23.926Z,100347.81
2023-02-11T15:11:30.309Z,100347.75
2023-02-11T15:14:34.544Z,100348.19
2023-02-11T15:17:37.403Z,100345.13
2023-02-11T15:20:42.345Z,100347.59
2023-02-11T15:23:56.649Z,100346.59
2023-02-11T15:27:02.955Z,100349.41
2023-02-11T15:30:21.439Z,100357.03
2023-02-11T15:33:25.458Z,100356.25
2023-02-11T15:36:33.132Z,100347.50
2023-02-11T15:39:38.392Z,100361.97
2023-02-11T15:42:56.763Z,100363.75
2023-02-11T15:46:02.641Z,100376.66
2023-02-11T15:49:08.040Z,100373.72
2023-02-11T15:52:10.768Z,100378.91
2023-02-11T15:55:15.051Z,100377.53
2023-02-11T15:58:19.162Z,100383.19
2023-02-11T16:01:33.163Z,100377.16
2023-02-11T16:04:37.800Z,100384.53
2023-02-11T16:07:46.238Z,100386.22
2023-02-11T16:10:58.661Z,100391.22
2023-02-11T16:14:06.632Z,100406.59
2023-02-11T16:17:11.452Z,100393.72
2023-02-11T16:20:19.821Z,100396.72
2023-02-11T16:23:24.806Z,100401.84
2023-02-11T16:26:31.514Z,100411.09
2023-02-11T16:29:37.714Z,100409.41
2023-02-11T16:32:40.581Z,100410.53
2023-02-11T16:35:44.940Z,100413.38
2023-02-11T16:38:47.638Z,100415.16
2023-02-11T16:41:51.597Z,100428.47
2023-02-11T16:44:55.599Z,100428.19
2023-02-11T16:47:58.443Z,100423.28
2023-02-11T16:51:01.093Z,100435.84
2023-02-11T16:54:03.895Z,100422.72
2023-02-11T16:57:10.346Z,100432.75
2023-02-11T17:00:17.696Z,100435.00
2023-02-11T17:03:23.243Z,100445.59
2023-02-11T17:06:25.993Z,100433.06
2023-02-11T17:09:31.099Z,100439.09
2023-02-11T17:12:34.005Z,100451.59
2023-02-11T17:15:38.037Z,100454.03
2023-02-11T17:18:40.830Z,100445.59
2023-02-11T17:21:43.974Z,100446.69
2023-02-11T17:24:47.047Z,100452.66
2023-02-11T17:27:52.542Z,100452.88
2023-02-11T17:30:56.849Z,100449.34
2023-02-11T17:33:59.541Z,100449.34
2023-02-11T17:37:08.865Z,100452.50
2023-02-11T17:40:12.999Z,100439.66
2023-02-11T17:43:16.027Z,100438.41
2023-02-11T17:46:20.226Z,100451.72
2023-02-11T17:49:22.968Z,100449.56
2023-02-11T17:52:27.932Z,100452.03
2023-02-11T17:55:33.775Z,100450.41
2023-02-11T17:58:36.634Z,100463.56
2023-02-11T18:01:42.164Z,100460.84
2023-02-11T18:04:44.900Z,100464.09
2023-02-11T18:07:48.759Z,100469.25
2023-02-11T18:10:51.330Z,100470.28
2023-02-11T18:13:54.562Z,100470.94
2023-02-11T18:16:58.668Z,100473.19
2023-02-11T18:20:01.455Z,100478.41
2023-02-11T18:23:04.293Z,100478.59
2023-02-11T18:26:08.311Z,100474.75
2023-02-11T18:29:11.153Z,100483.44
2023-02-11T18:32:15.456Z,100478.22
2023-02-11T18:35:20.226Z,100483.72
2023-02-11T18:38:23.298Z,100484.75
2023-02-11T18:41:26.034Z,100484.53
2023-02-11T18:44:29.162Z,100496.28
2023-02-11T18:47:33.773Z,100499.28
2023-02-11T18:50:36.794Z,100496.59
2023-02-11T18:53:40.023Z,100494.34
2023-02-11T18:56:42.910Z,100493.84
2023-02-11T18:59:45.549Z,100502.94
2023-02-11T19:02:49.842Z,100496.69
2023-02-11T19:05:54.631Z,100494.22
2023-02-11T19:08:59.964Z,100477.31
2023-02-11T19:12:03.025Z,100480.34
2023-02-11T19:15:07.387Z,100485.56
2023-02-11T19:18:11.829Z,100489.38
2023-02-11T19:21:14.652Z,100485.84
2023-02-11T19:24:19.735Z,100484.47
2023-02-11T19:27:22.440Z,100482.47
2023-02-11T19:30:25.069Z,100483.16
2023-02-11T19:33:29.107Z,100481.41
2023-02-11T19:36:31.990Z,100481.34
2023-02-11T19:39:34.701Z,100485.94
2023-02-11T19:42:37.403Z,100484.81
2023-02-11T19:45:40.101Z,100491.34
2023-02-11T19:48:44.089Z,100486.72
2023-02-11T19:51:47.072Z,100492.72
2023-02-11T19:54:49.826Z,100482.63
2023-02-11T19:57:52.538Z,100468.81
2023-02-11T20:00:55.661Z,100479.94
2023-02-11T20:03:59.654Z,100483.44
2023-02-11T20:07:02.287Z,100474.69
2023-02-11T20:10:05.517Z,100493.19
2023-02-11T20:13:08.625Z,100489.56
2023-02-11T20:16:12.793Z,100489.56
2023-02-11T20:19:18.398Z,100482.56
2023-02-11T20:22:21.368Z,100484.41
2023-02-11T20:25:23.992Z,100487.13
2023-02-11T20:28:26.727Z,100480.53
2023-02-11T20:31:29.944Z,100475.22
2023-02-11T20:34:33.949Z,100487.13
2023-02-11T20:37:36.677Z,100479.03
2023-02-11T20:40:39.305Z,100477.19
2023-02-11T20:43:42.504Z,100472.56
2023-02-11T20:46:47.072Z,100481.75
2023-02-11T20:49:51.488Z,100490.09
2023-02-11T20:52:54.118Z,100487.38
2023-02-11T20:55:56.880Z,100494.69
2023-02-11T20:59:00.907Z,100491.69
2023-02-11T21:02:04.037Z,100489.22
2023-02-11T21:05:08.741Z,100492.19
2023-02-11T21:08:11.597Z,100498.94
2023-02-11T21:11:14.718Z,100494.06
2023-02-11T21:14:17.906Z,100496.84
2023-02-11T21:17:21.046Z,100490.84
2023-02-11T21:20:25.465Z,100500.59
2023-02-11T21:23:29.116Z,100502.97
2023-02-11T21:26:31.974Z,100497.00
2023-02-11T21:29:40.450Z,100502.41
2023-02-11T21:32:48.458Z,100505.97
2023-02-11T21:35:56.030Z,100509.28
2023-02-11T21:39:00.165Z,100508.69
2023-02-11T21:42:02.847Z,100513.03
2023-02-11T21:45:05.858Z,100508.19
2023-02-11T21:48:08.475Z,100515.19
2023-02-11T21:51:14.448Z,100517.03
2023-02-11T21:54:18.746Z,100516.22
2023-02-11T21:57:21.506Z,100527.59
2023-02-11T22:00:24.702Z,100525.13
2023-02-11T22:03:27.431Z,100530.53
2023-02-11T22:06:32.964Z,100531.44
2023-02-11T22:09:35.624Z,100520.56
2023-02-11T22:12:38.298Z,100517.78
2023-02-11T22:15:41.208Z,100533.97
2023-02-11T22:18:45.814Z,100535.09
2023-02-11T22:21:49.834Z,100523.41
2023-02-11T22:24:54.133Z,100542.41
2023-02-11T22:27:56.832Z,100533.97
2023-02-11T22:30:59.664Z,100534.88
2023-02-11T22:34:03.072Z,100544.91
2023-02-11T22:37:07.618Z,100552.00
2023-02-11T22:40:11.116Z,100546.56
2023-02-11T22:43:13.794Z,100549.81
2023-02-11T22:46:18.724Z,100545.47
2023-02-11T22:49:23.112Z,100533.59
2023-02-11T22:52:28.394Z,100524.81
2023-02-11T22:55:31.202Z,100520.56
2023-02-11T22:58:34.776Z,100530.63
2023-02-11T23:01:37.476Z,100535.19
2023-02-11T23:04:40.483Z,100533.44
2023-02-11T23:07:44.471Z,100542.94
2023-02-11T23:10:47.200Z,100538.25
2023-02-11T23:13:51.800Z,100527.94
2023-02-11T23:16:54.453Z,100523.84
2023-02-11T23:19:57.253Z,100529.28
2023-02-11T23:23:01.306Z,100527.31
2023-02-11T23:26:04.383Z,100523.53
2023-02-11T23:29:07.508Z,100530.28
2023-02-11T23:32:10.349Z,100526.50
2023-02-11T23:35:18.510Z,100529.22
2023-02-11T23:38:22.632Z,100535.16
2023-02-11T23:41:27.159Z,100548.97
2023-02-11T23:44:30.107Z,100551.28
2023-02-11T23:47:33.220Z,100546.41
2023-02-11T23:50:35.882Z,100545.78
2023-02-11T23:53:40.555Z,100539.25
2023-02-11T23:56:43.517Z,100538.19
2023-02-11T23:59:49.934Z,100547.41
